Terminal Aerodrome Forecast
Issued by NWS

Home | Current Version | Previous Version | Text Only | Print | Product List | Glossary On
Versions: 1 2 3 4 5 6 7 8 9 10 11 12 13 14 15 16 17 18
721
FTUS43 KDVN 212102 AAA
TAFBRL
TAF AMD
KBRL 212102Z 2121/2218 19014G18KT P6SM FEW250
     FM220000 20004KT P6SM FEW080 FEW250
     FM221000 20004KT 4SM BR SCT050 BKN120
     FM221500 21006KT 6SM HZ SCT050 BKN120=

USA.gov is the U.S. government's official web portal to all federal, state and local government web resources and services.